createdAt,value
2018-04-26T00:12:13.078Z,99.90
2018-04-26T00:14:40.673Z,99.90
2018-04-26T00:17:08.227Z,99.90
2018-04-26T00:22:35.423Z,99.90
2018-04-26T00:25:02.949Z,99.90
2018-04-26T00:27:30.480Z,99.90
2018-04-26T00:29:58.035Z,99.40
2018-04-26T00:32:26.328Z,99.70
2018-04-26T00:34:53.861Z,99.70
2018-04-26T00:37:21.392Z,99.50
2018-04-26T00:39:52.123Z,99.40
2018-04-26T00:42:19.654Z,99.10
2018-04-26T00:44:47.180Z,98.80
2018-04-26T00:47:14.724Z,99.20
2018-04-26T00:49:42.255Z,99.20
2018-04-26T00:52:09.788Z,99.20
2018-04-26T00:54:37.307Z,99.10
2018-04-26T00:57:10.721Z,99.40
2018-04-26T00:59:39.098Z,99.50
2018-04-26T01:02:07.404Z,99.50
2018-04-26T01:04:34.933Z,99.50
2018-04-26T01:07:03.248Z,99.50
2018-04-26T01:09:30.777Z,99.50
2018-04-26T01:11:58.307Z,99.60
2018-04-26T01:14:25.832Z,99.70
2018-04-26T01:16:53.374Z,99.80
2018-04-26T01:28:01.587Z,99.90
2018-04-26T01:30:32.569Z,99.90
2018-04-26T01:33:00.106Z,99.90
2018-04-26T01:35:28.429Z,99.90
2018-04-26T01:37:55.960Z,99.90
2018-04-26T01:40:23.492Z,99.90
2018-04-26T01:42:51.039Z,99.90
2018-04-26T01:45:18.631Z,99.90
2018-04-26T01:47:46.932Z,99.90
2018-04-26T01:50:14.477Z,99.90
2018-04-26T01:52:41.996Z,99.90
2018-04-26T01:55:10.134Z,99.90
2018-04-26T01:57:37.672Z,99.90
2018-04-26T02:00:08.599Z,99.90
2018-04-26T02:02:36.127Z,99.90
2018-04-26T02:05:03.672Z,99.90
2018-04-26T02:07:31.217Z,99.90
2018-04-26T02:09:58.747Z,99.90
2018-04-26T02:12:26.278Z,99.90
2018-04-26T02:17:47.944Z,99.90
2018-04-26T02:20:15.487Z,99.90
2018-04-26T02:22:43.026Z,99.90
2018-04-26T02:25:10.777Z,99.90
2018-04-26T02:27:38.312Z,99.90
2018-04-26T02:30:09.256Z,99.90
2018-04-26T02:32:36.793Z,99.90
2018-04-26T02:35:04.340Z,99.90
2018-04-26T02:37:31.898Z,99.90
2018-04-26T02:40:00.194Z,99.90
2018-04-26T02:42:27.731Z,99.90
2018-04-26T02:44:55.288Z,99.90
2018-04-26T02:47:22.818Z,99.90
2018-04-26T02:49:50.361Z,99.90
2018-04-26T02:52:17.897Z,99.90
2018-04-26T02:54:45.432Z,99.90
2018-04-26T02:57:17.121Z,99.90
2018-04-26T02:59:44.660Z,99.90
2018-04-26T03:02:12.195Z,99.90
2018-04-26T03:04:39.744Z,99.90
2018-04-26T03:07:07.297Z,99.90
2018-04-26T03:09:34.845Z,99.90
2018-04-26T03:12:02.408Z,99.90
2018-04-26T03:17:23.167Z,99.90
2018-04-26T03:25:41.680Z,99.90
2018-04-26T03:28:09.215Z,99.90
2018-04-26T03:30:36.773Z,99.90
2018-04-26T03:33:04.316Z,99.90
2018-04-26T03:35:31.864Z,99.90
2018-04-26T03:37:59.416Z,99.90
2018-04-26T03:40:27.046Z,99.90
2018-04-26T03:42:54.580Z,99.90
2018-04-26T03:45:22.128Z,99.90
2018-04-26T03:47:49.672Z,99.90
2018-04-26T03:50:17.203Z,99.90
2018-04-26T03:52:48.144Z,99.90
2018-04-26T03:55:15.680Z,99.90
2018-04-26T03:57:43.216Z,99.90
2018-04-26T04:00:22.564Z,99.90
2018-04-26T04:03:01.879Z,99.90
2018-04-26T04:08:29.207Z,99.90
2018-04-26T04:10:56.769Z,99.90
2018-04-26T04:13:24.308Z,99.90
2018-04-26T07:18:26.390Z,99.90
2018-04-26T07:23:39.803Z,99.90
2018-04-26T07:26:10.618Z,99.90
2018-04-26T07:28:38.936Z,99.90
2018-04-26T07:31:06.485Z,99.90
2018-04-26T07:33:34.036Z,99.90
2018-04-26T07:36:01.579Z,99.90
2018-04-26T07:38:29.878Z,99.90
2018-04-26T07:40:57.421Z,99.90
2018-04-26T07:43:28.769Z,99.90
2018-04-26T07:45:56.316Z,99.90
2018-04-26T07:48:23.860Z,99.90
2018-04-26T07:50:51.392Z,99.90
2018-04-26T07:53:18.930Z,99.90
2018-04-26T07:55:46.458Z,99.90
2018-04-26T07:58:14.760Z,99.90
2018-04-26T08:00:45.439Z,99.90
2018-04-26T08:03:12.982Z,99.90
2018-04-26T08:05:40.525Z,99.90
2018-04-26T08:08:08.077Z,99.90
2018-04-26T08:10:36.330Z,99.90
2018-04-26T08:18:28.916Z,99.90
2018-04-26T09:24:53.394Z,92.80
2018-04-26T09:27:20.940Z,92.70
2018-04-26T09:29:48.476Z,91.30
2018-04-26T09:32:19.279Z,91.70
2018-04-26T09:34:46.859Z,91.40
2018-04-26T09:37:15.159Z,91.30
2018-04-26T09:39:42.707Z,91.30
2018-04-26T09:42:10.249Z,92.10
2018-04-26T09:44:38.576Z,94.00
2018-04-26T09:47:06.102Z,94.00
2018-04-26T09:49:33.631Z,93.20
2018-04-26T09:52:01.169Z,93.10
2018-04-26T09:54:28.713Z,92.20
2018-04-26T09:56:59.600Z,91.30
2018-04-26T09:59:27.148Z,91.50
2018-04-26T10:02:00.247Z,90.80
2018-04-26T10:04:27.792Z,88.30
2018-04-26T10:06:59.275Z,88.80
2018-04-26T10:09:26.804Z,87.60
2018-04-26T10:11:54.340Z,87.50
2018-04-26T10:17:16.908Z,78.20
2018-04-26T10:29:27.815Z,78.20
2018-04-26T10:31:55.347Z,82.10
2018-04-26T10:34:23.646Z,84.40
2018-04-26T10:36:51.191Z,84.40
2018-04-26T10:39:18.727Z,78.40
2018-04-26T10:41:46.257Z,77.80
2018-04-26T10:44:13.876Z,77.10
2018-04-26T10:46:41.368Z,76.20
2018-04-26T10:49:08.917Z,75.60
2018-04-26T10:51:39.645Z,72.00
2018-04-26T10:54:07.211Z,70.80
2018-04-26T10:56:34.756Z,71.20
2018-04-26T10:59:02.310Z,75.30
2018-04-26T11:01:29.863Z,73.70
2018-04-26T11:03:57.417Z,70.20
2018-04-26T11:06:25.736Z,67.20
2018-04-26T11:08:56.398Z,67.20
2018-04-26T11:11:23.972Z,70.40
2018-04-26T11:20:02.028Z,66.50
2018-04-26T12:14:34.608Z,58.70
2018-04-26T12:17:02.154Z,60.30
2018-04-26T12:22:30.412Z,64.00
2018-04-26T12:25:01.087Z,64.20
2018-04-26T12:27:28.624Z,67.90
2018-04-26T12:29:57.035Z,70.50
2018-04-26T12:32:24.616Z,70.50
2018-04-26T12:34:52.192Z,74.60
2018-04-26T12:37:19.824Z,76.30
2018-04-26T12:39:50.361Z,80.60
2018-04-26T12:42:17.982Z,84.80
2018-04-26T12:44:45.511Z,86.00
2018-04-26T12:47:13.119Z,85.60
2018-04-26T12:49:40.677Z,87.30
2018-04-26T12:52:08.341Z,88.60
2018-04-26T12:54:35.875Z,89.50
2018-04-26T12:57:06.628Z,88.40
2018-04-26T12:59:34.177Z,87.40
2018-04-26T13:02:02.497Z,89.10
2018-04-26T13:04:30.052Z,89.00
2018-04-26T13:06:57.598Z,87.80
2018-04-26T13:09:25.132Z,88.30
2018-04-26T13:11:52.686Z,87.30
2018-04-26T13:14:40.124Z,90.10
2018-04-26T13:17:08.574Z,89.60
2018-04-26T13:19:36.175Z,89.60
2018-04-26T13:24:58.082Z,74.70
2018-04-26T13:27:28.895Z,74.70
2018-04-26T13:29:56.415Z,74.00
2018-04-26T13:32:24.019Z,71.70
2018-04-26T13:34:51.569Z,73.20
2018-04-26T13:37:19.100Z,74.50
2018-04-26T13:39:46.743Z,73.50
2018-04-26T13:42:14.216Z,74.90
2018-04-26T13:44:41.770Z,70.40
2018-04-26T13:47:10.070Z,67.30
2018-04-26T13:49:37.618Z,67.30
2018-04-26T13:52:05.285Z,67.80
2018-04-26T13:54:32.796Z,69.10
2018-04-26T13:57:03.655Z,68.50
2018-04-26T13:59:31.204Z,65.30
2018-04-26T14:01:58.728Z,62.90
2018-04-26T14:04:26.287Z,61.10
2018-04-26T14:06:53.823Z,60.50
2018-04-26T14:09:21.399Z,59.90
2018-04-26T14:11:48.948Z,59.20
2018-04-26T14:17:09.419Z,58.90
2018-04-26T14:19:36.960Z,59.70
2018-04-26T14:28:00.321Z,61.00
2018-04-26T14:30:31.075Z,65.20
2018-04-26T14:32:58.617Z,65.00
2018-04-26T14:35:26.175Z,64.00
2018-04-26T14:37:53.736Z,69.20
2018-04-26T14:40:21.273Z,66.90
2018-04-26T14:42:49.689Z,67.20
2018-04-26T14:45:17.277Z,67.10
2018-04-26T14:47:44.831Z,69.50
2018-04-26T14:50:12.397Z,68.30
2018-04-26T14:52:53.145Z,68.20
2018-04-26T14:55:20.705Z,68.50
2018-04-26T14:57:48.243Z,68.40
2018-04-26T15:00:15.784Z,65.80
2018-04-26T15:02:43.330Z,66.50
2018-04-26T15:05:10.901Z,65.50
2018-04-26T15:07:38.463Z,66.30
2018-04-26T15:10:06.790Z,64.70
2018-04-26T15:12:34.463Z,64.50
2018-04-26T15:15:02.027Z,67.80
2018-04-26T16:24:27.939Z,58.30
2018-04-26T16:27:13.140Z,57.40
2018-04-26T16:29:52.528Z,56.80
2018-04-26T16:32:37.178Z,57.90
2018-04-26T16:35:20.550Z,58.30
2018-04-26T16:38:05.748Z,57.40
2018-04-26T16:40:33.493Z,57.20
2018-04-26T16:43:01.073Z,56.40
2018-04-26T16:45:28.662Z,57.00
2018-04-26T16:47:56.205Z,56.30
2018-04-26T16:50:23.835Z,57.10
2018-04-26T16:52:54.585Z,57.40
2018-04-26T16:55:22.143Z,60.20
2018-04-26T16:57:50.482Z,63.00
2018-04-26T17:00:18.041Z,63.00
2018-04-26T17:02:45.568Z,63.70
2018-04-26T17:05:13.133Z,64.10
2018-04-26T17:07:40.675Z,63.40
2018-04-26T17:10:09.043Z,62.20
2018-04-26T17:12:43.952Z,61.40
2018-04-26T17:23:54.864Z,64.10
2018-04-26T17:26:24.260Z,65.80
2018-04-26T17:28:52.729Z,66.10
2018-04-26T17:41:00.293Z,64.20
2018-04-26T17:43:27.868Z,64.00
2018-04-26T17:45:55.405Z,66.20
2018-04-26T17:48:23.677Z,66.50
2018-04-26T17:50:51.202Z,66.50
2018-04-26T17:53:18.829Z,68.20
2018-04-26T17:55:50.450Z,69.90
2018-04-26T17:58:18.057Z,69.90
2018-04-26T18:00:45.552Z,70.00
2018-04-26T18:03:13.095Z,70.40
2018-04-26T18:05:41.413Z,70.90
2018-04-26T18:08:08.949Z,70.80
2018-04-26T18:10:37.242Z,73.20
2018-04-26T18:13:07.959Z,73.10
2018-04-26T18:15:35.505Z,73.40
2018-04-26T18:18:03.831Z,74.00
2018-04-26T18:20:31.364Z,74.00
2018-04-26T18:22:58.949Z,75.20
2018-04-26T18:25:36.990Z,75.80
2018-04-26T18:28:04.584Z,76.00
2018-04-26T18:30:36.157Z,76.60
2018-04-26T18:33:03.754Z,76.60
2018-04-26T18:35:31.291Z,77.60
2018-04-26T18:37:58.835Z,77.70
2018-04-26T18:40:26.392Z,77.70
2018-04-26T18:42:53.933Z,77.90
2018-04-26T18:45:21.457Z,78.70
2018-04-26T18:47:48.992Z,78.40
2018-04-26T18:50:17.094Z,78.80
2018-04-26T18:52:44.644Z,79.00
2018-04-26T18:55:12.192Z,78.50
2018-04-26T18:57:43.060Z,78.90
2018-04-26T19:00:11.385Z,77.90
2018-04-26T19:02:38.958Z,77.90
2018-04-26T19:05:06.528Z,78.50
2018-04-26T19:07:34.125Z,78.80
2018-04-26T19:10:02.257Z,79.20
2018-04-26T19:12:29.852Z,79.60
2018-04-26T19:14:58.250Z,80.30
2018-04-26T19:17:26.484Z,80.60
2018-04-26T19:23:05.241Z,82.20
2018-04-26T20:20:41.284Z,89.90
2018-04-26T20:23:08.815Z,89.90
2018-04-26T20:25:39.647Z,90.60
2018-04-26T20:28:07.169Z,90.80
2018-04-26T20:30:34.723Z,91.00
2018-04-26T20:33:02.282Z,91.10
2018-04-26T20:35:29.828Z,91.20
2018-04-26T20:37:57.367Z,91.30
2018-04-26T20:40:24.928Z,91.20
2018-04-26T20:42:52.485Z,91.70
2018-04-26T20:45:20.045Z,91.90
2018-04-26T20:47:47.590Z,91.80
2018-04-26T20:50:15.134Z,91.90
2018-04-26T20:52:42.664Z,91.90
2018-04-26T20:55:13.528Z,91.90
2018-04-26T20:57:41.062Z,92.10
2018-04-26T21:00:08.616Z,92.50
2018-04-26T21:02:36.374Z,92.80
2018-04-26T21:05:03.909Z,93.00
2018-04-26T21:07:31.435Z,92.90
2018-04-26T21:09:58.976Z,92.60
2018-04-26T21:12:27.405Z,92.60
2018-04-26T21:20:42.200Z,92.40
2018-04-26T21:26:03.883Z,92.50
2018-04-26T21:28:34.769Z,92.90
2018-04-26T21:31:02.247Z,92.70
2018-04-26T21:33:29.794Z,93.40
2018-04-26T21:35:57.331Z,93.50
2018-04-26T21:38:24.876Z,93.70
2018-04-26T21:40:53.176Z,93.60
2018-04-26T21:43:20.717Z,93.60
2018-04-26T21:45:49.168Z,93.70
2018-04-26T21:48:16.716Z,93.70
2018-04-26T21:50:49.852Z,93.80
2018-04-26T21:53:26.456Z,93.90
2018-04-26T21:55:59.567Z,94.10
2018-04-26T21:58:32.849Z,94.20
2018-04-26T22:01:06.018Z,94.20
2018-04-26T22:03:38.126Z,94.30
2018-04-26T22:06:05.732Z,94.20
2018-04-26T22:08:33.240Z,94.60
2018-04-26T22:11:00.792Z,94.60
2018-04-26T22:13:43.958Z,95.20
2018-04-26T22:24:55.127Z,95.20
2018-04-26T22:27:22.671Z,95.20
2018-04-26T22:29:50.220Z,95.60
2018-04-26T22:32:18.713Z,95.70
2018-04-26T22:34:47.016Z,95.90
2018-04-26T22:37:14.547Z,95.90
2018-04-26T22:39:42.102Z,95.90
2018-04-26T22:42:13.551Z,96.30
2018-04-26T22:44:41.804Z,96.30
2018-04-26T22:47:09.346Z,96.60
2018-04-26T22:49:36.874Z,96.60
2018-04-26T22:52:04.406Z,96.70
2018-04-26T22:54:31.963Z,96.80
2018-04-26T22:57:00.929Z,97.10
2018-04-26T22:59:31.604Z,97.10
2018-04-26T23:01:59.152Z,97.20
2018-04-26T23:04:26.697Z,97.30
2018-04-26T23:06:54.230Z,97.30
2018-04-26T23:09:21.780Z,97.50
2018-04-26T23:11:49.302Z,97.60
2018-04-26T23:14:17.614Z,97.70
2018-04-26T23:16:45.193Z,97.60
2018-04-26T23:19:12.803Z,97.70
2018-04-26T23:24:33.866Z,97.60
2018-04-26T23:27:04.659Z,97.40
2018-04-26T23:29:32.198Z,97.10
2018-04-26T23:31:59.738Z,97.10
2018-04-26T23:34:27.274Z,96.70
2018-04-26T23:36:55.413Z,97.00
2018-04-26T23:39:23.729Z,97.00
2018-04-26T23:41:51.376Z,97.00
2018-04-26T23:44:18.920Z,96.80
2018-04-26T23:46:47.455Z,96.60
2018-04-26T23:49:14.996Z,96.60
2018-04-26T23:51:42.533Z,96.80
2018-04-26T23:54:10.059Z,96.80
2018-04-26T23:56:40.903Z,96.80
2018-04-26T23:59:08.453Z,96.90
